Walnuttown, Pennsylvania
Current Conditions -  °F | °C
As of 1:54 AM on Friday 28 Nov 2014 (Local Time) from KRDG Reporting Station
Overcast Overcast  
Wind Chill: 27°   Ceiling: 5500
Heat Index: 34°   Visibility: 10mi
Dew Point: 27°   Wind: 8mph
Humidity: 75%   Direction: 280°W
Pressure: 30.11"   Gusts: NA
Location:  40.4504°N, 75.8012°W
Report Text: KRDG 280654Z AUTO 28007KT 10SM OVC055 01/M03 A3011 RMK AO2 SLP205 T00111028
Loading
Personal Weather Stations






























Interactive Weather Map New forecast layout! Learn more

10-Day Weather Forecast

Advertisements
Track Severe Weather on mobile